createdAt,value
2023-02-11T00:01:57.378Z,9.57
2023-02-11T00:04:25.539Z,8.27
2023-02-11T00:06:52.467Z,10.00
2023-02-11T00:09:19.149Z,7.80
2023-02-11T00:11:46.076Z,9.48
2023-02-11T00:14:14.132Z,8.00
2023-02-11T00:16:44.013Z,6.80
2023-02-11T00:19:10.852Z,7.47
2023-02-11T00:21:37.728Z,7.00
2023-02-11T00:24:04.826Z,6.15
2023-02-11T00:26:33.434Z,6.20
2023-02-11T00:29:02.373Z,7.55
2023-02-11T00:31:33.678Z,6.45
2023-02-11T00:34:01.645Z,9.82
2023-02-11T00:36:29.838Z,9.27
2023-02-11T00:39:00.170Z,8.40
2023-02-11T00:41:27.221Z,6.07
2023-02-11T00:43:54.169Z,9.98
2023-02-11T00:46:21.930Z,7.35
2023-02-11T00:48:51.789Z,7.43
2023-02-11T00:51:18.928Z,6.05
2023-02-11T00:53:45.631Z,6.13
2023-02-11T00:56:12.461Z,6.68
2023-02-11T00:58:39.285Z,7.55
2023-02-11T01:01:06.284Z,6.40
2023-02-11T01:03:33.374Z,7.25
2023-02-11T01:06:02.232Z,7.30
2023-02-11T01:08:29.195Z,7.35
2023-02-11T01:10:57.607Z,7.40
2023-02-11T01:13:25.864Z,6.55
2023-02-11T01:15:53.266Z,8.68
2023-02-11T01:18:20.643Z,7.78
2023-02-11T01:20:47.462Z,8.38
2023-02-11T01:23:15.639Z,8.15
2023-02-11T01:25:42.440Z,6.07
2023-02-11T01:28:16.866Z,6.50
2023-02-11T01:30:43.854Z,6.30
2023-02-11T01:33:10.912Z,7.60
2023-02-11T01:35:38.712Z,8.25
2023-02-11T01:38:06.794Z,6.35
2023-02-11T01:40:35.076Z,5.13
2023-02-11T01:43:02.704Z,7.72
2023-02-11T01:46:08.112Z,5.53
2023-02-11T01:48:38.833Z,6.63
2023-02-11T01:51:09.246Z,7.40
2023-02-11T01:53:56.313Z,6.10
2023-02-11T01:56:44.737Z,7.22
2023-02-11T01:59:16.769Z,5.78
2023-02-11T02:01:48.858Z,8.50
2023-02-11T02:04:18.074Z,5.28
2023-02-11T02:06:50.746Z,6.40
2023-02-11T02:09:22.798Z,5.82
2023-02-11T02:11:51.771Z,4.88
2023-02-11T02:14:19.052Z,5.95
2023-02-11T02:16:46.182Z,5.88
2023-02-11T02:19:56.075Z,7.57
2023-02-11T02:22:55.670Z,5.45
2023-02-11T02:25:47.525Z,6.28
2023-02-11T02:28:37.062Z,6.55
2023-02-11T02:31:28.185Z,9.02
2023-02-11T02:34:02.132Z,6.40
2023-02-11T02:36:37.147Z,7.07
2023-02-11T02:39:10.719Z,6.47
2023-02-11T02:41:39.507Z,7.97
2023-02-11T02:44:08.355Z,5.82
2023-02-11T02:46:36.570Z,6.65
2023-02-11T02:49:07.367Z,9.15
2023-02-11T02:52:00.149Z,9.38
2023-02-11T02:54:44.928Z,7.53
2023-02-11T02:57:27.432Z,3.47
2023-02-11T03:00:08.460Z,6.55
2023-02-11T03:02:41.582Z,7.85
2023-02-11T03:05:16.367Z,7.18
2023-02-11T03:07:48.505Z,8.27
2023-02-11T03:10:19.712Z,5.32
2023-02-11T03:12:50.446Z,6.82
2023-02-11T03:15:19.503Z,5.05
2023-02-11T03:17:49.767Z,6.07
2023-02-11T03:20:20.428Z,4.03
2023-02-11T03:22:50.808Z,6.45
2023-02-11T03:25:18.201Z,10.32
2023-02-11T03:27:52.638Z,7.07
2023-02-11T03:30:26.789Z,5.45
2023-02-11T03:33:00.245Z,5.90
2023-02-11T03:35:33.092Z,8.13
2023-02-11T03:38:02.710Z,7.47
2023-02-11T03:40:32.650Z,7.88
2023-02-11T03:43:02.873Z,7.13
2023-02-11T03:45:30.631Z,5.63
2023-02-11T03:48:01.049Z,6.78
2023-02-11T03:50:32.646Z,5.65
2023-02-11T03:53:02.374Z,7.95
2023-02-11T03:55:30.873Z,5.25
2023-02-11T03:57:57.652Z,5.22
2023-02-11T04:00:30.680Z,8.25
2023-02-11T04:02:57.553Z,7.55
2023-02-11T04:05:24.471Z,7.13
2023-02-11T04:07:52.690Z,6.47
2023-02-11T04:10:19.881Z,6.28
2023-02-11T04:12:46.809Z,8.77
2023-02-11T04:15:13.485Z,8.77
2023-02-11T04:17:40.339Z,7.30
2023-02-11T04:20:08.015Z,12.35
2023-02-11T04:22:34.778Z,9.73
2023-02-11T04:25:03.094Z,8.27
2023-02-11T04:27:30.035Z,7.00
2023-02-11T04:29:56.792Z,6.53
2023-02-11T04:32:23.625Z,8.60
2023-02-11T04:34:50.581Z,7.05
2023-02-11T04:37:17.429Z,8.55
2023-02-11T04:39:44.163Z,9.55
2023-02-11T04:42:12.367Z,9.85
2023-02-11T04:44:39.170Z,7.53
2023-02-11T04:47:05.993Z,8.60
2023-02-11T04:49:32.756Z,6.80
2023-02-11T04:51:59.600Z,6.68
2023-02-11T04:54:26.428Z,8.23
2023-02-11T04:56:53.174Z,7.55
2023-02-11T04:59:21.264Z,7.15
2023-02-11T05:01:48.068Z,8.18
2023-02-11T05:04:14.876Z,7.45
2023-02-11T05:06:41.836Z,8.13
2023-02-11T05:09:10.390Z,9.00
2023-02-11T05:11:39.325Z,6.60
2023-02-11T05:14:06.749Z,8.52
2023-02-11T05:16:35.768Z,9.02
2023-02-11T05:19:02.542Z,8.80
2023-02-11T05:21:29.297Z,9.80
2023-02-11T05:23:57.177Z,9.60
2023-02-11T05:26:23.904Z,12.05
2023-02-11T05:28:50.671Z,6.72
2023-02-11T05:31:17.590Z,7.82
2023-02-11T05:33:45.784Z,9.55
2023-02-11T05:36:13.693Z,8.43
2023-02-11T05:38:40.732Z,7.68
2023-02-11T05:41:07.598Z,7.47
2023-02-11T05:43:37.479Z,8.02
2023-02-11T05:46:04.924Z,9.23
2023-02-11T05:48:32.030Z,10.40
2023-02-11T05:51:00.093Z,7.85
2023-02-11T05:53:27.024Z,8.77
2023-02-11T05:55:53.792Z,7.13
2023-02-11T05:58:20.725Z,8.30
2023-02-11T06:00:47.510Z,7.82
2023-02-11T06:03:16.613Z,11.18
2023-02-11T06:05:43.568Z,8.27
2023-02-11T06:08:12.343Z,9.15
2023-02-11T06:10:39.436Z,7.90
2023-02-11T06:13:06.243Z,10.43
2023-02-11T06:15:33.099Z,13.55
2023-02-11T06:17:59.950Z,10.90
2023-02-11T06:20:26.764Z,10.15
2023-02-11T06:22:53.949Z,9.98
2023-02-11T06:25:22.251Z,8.60
2023-02-11T06:27:49.151Z,10.00
2023-02-11T06:30:16.059Z,10.60
2023-02-11T06:32:45.997Z,11.07
2023-02-11T06:35:13.579Z,7.70
2023-02-11T06:37:40.868Z,9.68
2023-02-11T06:40:08.631Z,11.48
2023-02-11T06:42:39.154Z,9.98
2023-02-11T06:45:09.044Z,10.73
2023-02-11T06:47:36.132Z,9.55
2023-02-11T06:50:03.646Z,10.95
2023-02-11T06:52:30.476Z,9.02
2023-02-11T06:54:57.323Z,13.25
2023-02-11T06:57:24.156Z,10.82
2023-02-11T06:59:54.393Z,11.55
2023-02-11T07:02:21.475Z,11.25
2023-02-11T07:04:48.355Z,11.77
2023-02-11T07:07:15.306Z,15.05
2023-02-11T07:09:42.291Z,13.35
2023-02-11T07:12:12.185Z,13.60
2023-02-11T07:14:39.510Z,12.95
2023-02-11T07:17:07.686Z,12.90
2023-02-11T07:19:34.592Z,12.48
2023-02-11T07:22:01.488Z,12.77
2023-02-11T07:24:28.281Z,11.35
2023-02-11T07:26:55.263Z,14.52
2023-02-11T07:29:22.143Z,14.93
2023-02-11T07:31:49.213Z,14.43
2023-02-11T07:34:17.475Z,13.38
2023-02-11T07:36:45.116Z,14.45
2023-02-11T07:39:12.061Z,15.02
2023-02-11T07:41:39.191Z,11.73
2023-02-11T07:44:06.355Z,15.38
2023-02-11T07:46:34.671Z,13.00
2023-02-11T07:49:01.672Z,15.50
2023-02-11T07:51:31.449Z,12.27
2023-02-11T07:54:00.260Z,14.40
2023-02-11T07:56:28.174Z,11.48
2023-02-11T07:59:01.355Z,13.90
2023-02-11T08:01:31.440Z,15.35
2023-02-11T08:03:59.599Z,16.85
2023-02-11T08:06:30.133Z,11.45
2023-02-11T08:08:57.133Z,15.02
2023-02-11T08:11:26.922Z,17.63
2023-02-11T08:13:55.122Z,17.20
2023-02-11T08:16:25.094Z,16.67
2023-02-11T08:18:53.185Z,14.13
2023-02-11T08:21:20.593Z,14.73
2023-02-11T08:23:49.801Z,16.55
2023-02-11T08:26:19.344Z,16.10
2023-02-11T08:28:48.192Z,12.85
2023-02-11T08:31:17.748Z,18.00
2023-02-11T08:33:45.341Z,18.67
2023-02-11T08:36:14.421Z,17.20
2023-02-11T08:38:41.590Z,19.80
2023-02-11T08:41:10.065Z,16.88
2023-02-11T08:43:41.718Z,18.85
2023-02-11T08:46:09.392Z,18.17
2023-02-11T08:48:36.334Z,16.70
2023-02-11T08:51:06.708Z,16.70
2023-02-11T08:53:33.709Z,19.63
2023-02-11T08:56:00.625Z,18.27
2023-02-11T08:58:28.972Z,20.17
2023-02-11T09:00:55.867Z,18.75
2023-02-11T09:03:22.684Z,17.50
2023-02-11T09:05:53.122Z,21.85
2023-02-11T09:08:21.115Z,17.55
2023-02-11T09:10:48.119Z,23.67
2023-02-11T09:13:15.016Z,19.60
2023-02-11T09:15:45.254Z,17.13
2023-02-11T09:18:12.414Z,22.80
2023-02-11T09:20:39.199Z,18.45
2023-02-11T09:23:05.971Z,21.25
2023-02-11T09:25:32.735Z,18.95
2023-02-11T09:27:59.753Z,22.83
2023-02-11T09:30:26.740Z,20.50
2023-02-11T09:32:54.969Z,19.92
2023-02-11T09:35:21.742Z,20.33
2023-02-11T09:37:48.672Z,23.10
2023-02-11T09:40:16.361Z,19.70
2023-02-11T09:42:51.074Z,21.40
2023-02-11T09:45:20.681Z,21.23
2023-02-11T09:47:51.384Z,19.38
2023-02-11T09:50:24.444Z,21.23
2023-02-11T09:52:56.918Z,23.33
2023-02-11T09:55:26.732Z,21.30
2023-02-11T09:57:53.785Z,22.40
2023-02-11T10:00:24.234Z,23.85
2023-02-11T10:03:05.137Z,23.17
2023-02-11T10:05:53.710Z,19.38
2023-02-11T10:08:31.833Z,18.52
2023-02-11T10:11:03.357Z,19.88
2023-02-11T10:13:43.994Z,22.27
2023-02-11T10:16:22.009Z,19.98
2023-02-11T10:19:11.308Z,22.85
2023-02-11T10:21:47.831Z,21.33
2023-02-11T10:24:16.363Z,20.33
2023-02-11T10:26:44.601Z,21.85
2023-02-11T10:29:21.359Z,21.77
2023-02-11T10:31:50.898Z,20.10
2023-02-11T10:34:17.743Z,23.85
2023-02-11T10:36:46.360Z,19.75
2023-02-11T10:39:15.856Z,19.83
2023-02-11T10:41:46.172Z,21.13
2023-02-11T10:44:27.657Z,20.25
2023-02-11T10:46:56.443Z,19.95
2023-02-11T10:49:39.411Z,18.80
2023-02-11T10:52:18.309Z,20.30
2023-02-11T10:54:57.395Z,18.75
2023-02-11T10:57:28.116Z,19.40
2023-02-11T10:59:59.796Z,18.17
2023-02-11T11:02:32.211Z,18.15
2023-02-11T11:05:00.940Z,17.80
2023-02-11T11:07:31.168Z,15.85
2023-02-11T11:10:02.454Z,18.55
2023-02-11T11:12:35.232Z,16.80
2023-02-11T11:15:13.587Z,17.90
2023-02-11T11:17:40.462Z,15.38
2023-02-11T11:20:22.466Z,16.30
2023-02-11T11:22:52.577Z,17.15
2023-02-11T11:25:24.786Z,16.20
2023-02-11T11:27:54.163Z,17.45
2023-02-11T11:30:23.499Z,15.77
2023-02-11T11:32:50.444Z,16.55
2023-02-11T11:35:27.058Z,14.68
2023-02-11T11:38:01.402Z,14.70
2023-02-11T11:40:30.361Z,13.63
2023-02-11T11:43:06.734Z,15.45
2023-02-11T11:45:33.560Z,15.82
2023-02-11T11:48:07.102Z,17.92
2023-02-11T11:50:37.040Z,14.80
2023-02-11T11:53:13.951Z,16.13
2023-02-11T11:55:45.002Z,15.65
2023-02-11T11:58:16.593Z,13.18
2023-02-11T12:00:54.780Z,16.20
2023-02-11T12:04:02.821Z,14.80
2023-02-11T12:06:42.679Z,12.93
2023-02-11T12:09:23.519Z,14.13
2023-02-11T12:12:14.104Z,12.68
2023-02-11T12:14:49.561Z,14.02
2023-02-11T12:17:33.977Z,12.07
2023-02-11T12:20:18.233Z,11.05
2023-02-11T12:22:59.073Z,12.88
2023-02-11T12:25:30.168Z,10.52
2023-02-11T12:28:16.227Z,12.93
2023-02-11T12:30:56.803Z,10.38
2023-02-11T12:33:45.423Z,11.13
2023-02-11T12:36:21.197Z,11.00
2023-02-11T12:39:03.043Z,12.77
2023-02-11T12:42:15.122Z,12.18
2023-02-11T12:44:58.361Z,10.85
2023-02-11T12:47:32.667Z,12.95
2023-02-11T12:50:18.147Z,11.80
2023-02-11T12:53:08.332Z,8.52
2023-02-11T12:55:38.687Z,9.70
2023-02-11T12:58:15.073Z,10.85
2023-02-11T13:00:49.593Z,12.18
2023-02-11T13:03:22.901Z,10.07
2023-02-11T13:05:53.074Z,10.60
2023-02-11T13:08:25.015Z,9.52
2023-02-11T13:10:58.392Z,10.55
2023-02-11T13:13:31.387Z,11.52
2023-02-11T13:16:06.960Z,11.38
2023-02-11T13:18:49.659Z,10.15
2023-02-11T13:21:30.634Z,10.55
2023-02-11T13:24:10.226Z,8.88
2023-02-11T13:26:45.885Z,9.35
2023-02-11T13:29:36.462Z,8.18
2023-02-11T13:32:08.519Z,8.88
2023-02-11T13:34:58.998Z,9.23
2023-02-11T13:37:29.360Z,8.73
2023-02-11T13:39:58.722Z,8.50
2023-02-11T13:42:26.211Z,6.80
2023-02-11T13:44:56.452Z,7.60
2023-02-11T13:47:32.129Z,9.40
2023-02-11T13:50:02.797Z,7.95
2023-02-11T13:52:32.465Z,10.20
2023-02-11T13:55:05.901Z,8.05
2023-02-11T13:57:35.942Z,12.88
2023-02-11T14:00:41.896Z,8.57
2023-02-11T14:03:42.656Z,9.13
2023-02-11T14:06:35.700Z,12.55
2023-02-11T14:09:27.675Z,8.50
2023-02-11T14:12:32.270Z,10.55
2023-02-11T14:15:03.806Z,10.90
2023-02-11T14:17:34.560Z,9.93
2023-02-11T14:20:04.676Z,9.50
2023-02-11T14:22:44.556Z,9.00
2023-02-11T14:25:22.037Z,8.57
2023-02-11T14:27:56.805Z,9.10
2023-02-11T14:30:52.815Z,7.65
2023-02-11T14:33:47.773Z,10.18
2023-02-11T14:36:30.862Z,8.25
2023-02-11T14:39:07.165Z,7.32
2023-02-11T14:41:41.069Z,8.25
2023-02-11T14:44:15.171Z,9.02
2023-02-11T14:46:45.502Z,10.45
2023-02-11T14:49:21.679Z,8.63
2023-02-11T14:51:48.643Z,8.02
2023-02-11T14:54:22.709Z,8.82
2023-02-11T14:57:06.275Z,8.30
2023-02-11T14:59:35.169Z,7.90
2023-02-11T15:02:02.257Z,7.88
2023-02-11T15:04:35.516Z,8.80
2023-02-11T15:07:07.062Z,8.48
2023-02-11T15:09:40.795Z,8.38
2023-02-11T15:12:18.669Z,8.15
2023-02-11T15:14:48.215Z,8.70
2023-02-11T15:17:19.541Z,8.90
2023-02-11T15:19:50.962Z,7.70
2023-02-11T15:22:22.020Z,6.68
2023-02-11T15:24:59.758Z,7.28
2023-02-11T15:27:26.992Z,7.45
2023-02-11T15:29:53.832Z,7.10
2023-02-11T15:32:23.718Z,8.02
2023-02-11T15:34:54.049Z,8.18
2023-02-11T15:37:23.236Z,7.13
2023-02-11T15:39:51.125Z,9.00
2023-02-11T15:42:20.389Z,8.23
2023-02-11T15:44:54.298Z,6.07
2023-02-11T15:47:30.254Z,6.57
2023-02-11T15:49:58.837Z,6.70
2023-02-11T15:52:28.013Z,6.80
2023-02-11T15:54:59.492Z,5.95
2023-02-11T15:57:26.695Z,5.60
2023-02-11T15:59:54.919Z,7.38
2023-02-11T16:02:28.546Z,6.10
2023-02-11T16:04:58.872Z,6.35
2023-02-11T16:07:44.326Z,5.80
2023-02-11T16:10:23.719Z,7.93
2023-02-11T16:13:15.735Z,7.20
2023-02-11T16:15:46.521Z,5.95
2023-02-11T16:18:28.538Z,6.30
2023-02-11T16:21:07.258Z,6.75
2023-02-11T16:23:38.905Z,6.53
2023-02-11T16:26:17.359Z,6.07
2023-02-11T16:28:44.314Z,5.43
2023-02-11T16:31:11.495Z,6.15
2023-02-11T16:33:38.380Z,7.18
2023-02-11T16:36:11.994Z,8.30
2023-02-11T16:38:38.852Z,5.60
2023-02-11T16:41:05.744Z,7.32
2023-02-11T16:43:32.576Z,6.07
2023-02-11T16:45:59.406Z,6.80
2023-02-11T16:48:26.383Z,5.72
2023-02-11T16:50:53.744Z,5.90
2023-02-11T16:53:25.236Z,5.28
2023-02-11T16:55:53.081Z,6.38
2023-02-11T16:58:20.148Z,4.68
2023-02-11T17:00:48.371Z,5.10
2023-02-11T17:03:20.531Z,5.40
2023-02-11T17:05:55.330Z,5.13
2023-02-11T17:08:24.190Z,5.05
2023-02-11T17:10:51.181Z,5.55
2023-02-11T17:13:18.200Z,5.28
2023-02-11T17:15:44.966Z,5.50
2023-02-11T17:18:13.808Z,5.22
2023-02-11T17:20:40.800Z,5.70
2023-02-11T17:23:07.793Z,5.90
2023-02-11T17:25:42.000Z,6.07
2023-02-11T17:28:12.150Z,5.13
2023-02-11T17:30:41.359Z,6.50
2023-02-11T17:33:08.235Z,5.57
2023-02-11T17:35:34.973Z,7.43
2023-02-11T17:38:01.732Z,7.47
2023-02-11T17:40:28.640Z,6.65
2023-02-11T17:42:56.894Z,7.60
2023-02-11T17:45:23.681Z,5.18
2023-02-11T17:47:50.826Z,7.57
2023-02-11T17:50:17.927Z,8.52
2023-02-11T17:52:44.980Z,7.20
2023-02-11T17:55:11.951Z,6.68
2023-02-11T17:57:39.284Z,8.68
2023-02-11T18:00:09.684Z,6.78
2023-02-11T18:02:36.570Z,5.72
2023-02-11T18:05:03.626Z,7.22
2023-02-11T18:07:30.578Z,5.68
2023-02-11T18:09:57.338Z,6.25
2023-02-11T18:12:26.923Z,6.72
2023-02-11T18:14:58.012Z,6.45
2023-02-11T18:17:26.761Z,6.93
2023-02-11T18:19:55.901Z,6.03
2023-02-11T18:22:22.995Z,8.88
2023-02-11T18:24:51.810Z,6.93
2023-02-11T18:27:18.552Z,8.68
2023-02-11T18:29:45.318Z,7.75
2023-02-11T18:32:12.763Z,7.90
2023-02-11T18:34:41.664Z,8.27
2023-02-11T18:37:08.587Z,7.93
2023-02-11T18:39:35.393Z,8.15
2023-02-11T18:42:02.344Z,7.85
2023-02-11T18:44:29.255Z,7.07
2023-02-11T18:46:59.005Z,8.70
2023-02-11T18:49:25.692Z,8.18
2023-02-11T18:51:53.993Z,8.95
2023-02-11T18:54:22.912Z,8.63
2023-02-11T18:56:49.801Z,8.63
2023-02-11T18:59:16.613Z,8.68
2023-02-11T19:01:46.862Z,6.65
2023-02-11T19:04:21.761Z,7.47
2023-02-11T19:06:49.981Z,6.30
2023-02-11T19:09:20.585Z,7.70
2023-02-11T19:11:47.653Z,6.30
2023-02-11T19:14:15.971Z,7.90
2023-02-11T19:16:44.576Z,8.50
2023-02-11T19:19:11.753Z,6.40
2023-02-11T19:21:38.596Z,7.80
2023-02-11T19:24:07.728Z,8.30
2023-02-11T19:26:36.759Z,5.97
2023-02-11T19:29:04.620Z,6.82
2023-02-11T19:31:32.359Z,7.10
2023-02-11T19:33:59.312Z,5.55
2023-02-11T19:36:26.121Z,8.27
2023-02-11T19:38:53.059Z,6.95
2023-02-11T19:41:22.234Z,7.47
2023-02-11T19:43:53.837Z,6.85
2023-02-11T19:46:23.871Z,5.72
2023-02-11T19:48:51.154Z,6.80
2023-02-11T19:51:18.181Z,7.07
2023-02-11T19:53:45.794Z,7.72
2023-02-11T19:56:13.877Z,7.35
2023-02-11T19:58:41.928Z,8.43
2023-02-11T20:01:12.602Z,6.95
2023-02-11T20:03:42.161Z,7.45
2023-02-11T20:06:13.097Z,8.43
2023-02-11T20:08:40.342Z,6.28
2023-02-11T20:11:08.591Z,7.60
2023-02-11T20:13:35.459Z,8.50
2023-02-11T20:16:07.265Z,7.68
2023-02-11T20:18:38.292Z,7.88
2023-02-11T20:21:08.624Z,8.43
2023-02-11T20:23:35.830Z,8.00
2023-02-11T20:26:06.933Z,7.63
2023-02-11T20:28:33.629Z,7.82
2023-02-11T20:31:00.937Z,8.05
2023-02-11T20:33:29.964Z,8.43
2023-02-11T20:35:59.483Z,9.15
2023-02-11T20:38:26.887Z,8.27
2023-02-11T20:40:54.120Z,8.35
2023-02-11T20:43:22.031Z,8.48
2023-02-11T20:45:49.591Z,8.70
2023-02-11T20:48:16.724Z,9.18
2023-02-11T20:50:43.475Z,9.60
2023-02-11T20:53:11.759Z,7.88
2023-02-11T20:55:39.247Z,8.05
2023-02-11T20:58:07.188Z,8.23
2023-02-11T21:00:36.135Z,7.43
2023-02-11T21:03:03.617Z,5.88
2023-02-11T21:05:31.169Z,7.13
2023-02-11T21:08:00.719Z,8.13
2023-02-11T21:10:28.878Z,8.70
2023-02-11T21:12:55.761Z,6.97
2023-02-11T21:15:24.167Z,9.30
2023-02-11T21:17:51.381Z,7.57
2023-02-11T21:20:18.555Z,7.05
2023-02-11T21:22:45.460Z,8.68
2023-02-11T21:25:12.346Z,8.30
2023-02-11T21:27:40.593Z,6.60
2023-02-11T21:30:08.587Z,7.72
2023-02-11T21:32:35.982Z,8.80
2023-02-11T21:35:03.321Z,7.32
2023-02-11T21:37:30.241Z,5.95
2023-02-11T21:39:56.941Z,7.60
2023-02-11T21:42:23.783Z,7.50
2023-02-11T21:44:51.956Z,7.03
2023-02-11T21:47:18.751Z,6.15
2023-02-11T21:49:45.521Z,7.55
2023-02-11T21:52:12.465Z,7.30
2023-02-11T21:54:39.246Z,5.88
2023-02-11T21:57:06.081Z,5.88
2023-02-11T21:59:32.918Z,8.55
2023-02-11T22:02:01.074Z,6.82
2023-02-11T22:04:27.795Z,8.82
2023-02-11T22:06:54.703Z,8.07
2023-02-11T22:09:21.519Z,8.23
2023-02-11T22:11:49.326Z,6.25
2023-02-11T22:14:16.841Z,7.45
2023-02-11T22:16:45.475Z,7.75
2023-02-11T22:19:14.298Z,8.20
2023-02-11T22:21:43.188Z,6.88
2023-02-11T22:24:09.866Z,8.82
2023-02-11T22:26:37.394Z,7.07
2023-02-11T22:29:04.343Z,6.13
2023-02-11T22:31:36.602Z,7.20
2023-02-11T22:34:04.349Z,6.85
2023-02-11T22:36:37.723Z,7.00
2023-02-11T22:39:06.931Z,7.35
2023-02-11T22:41:34.180Z,6.53
2023-02-11T22:44:01.194Z,7.28
2023-02-11T22:46:28.191Z,6.55
2023-02-11T22:48:55.048Z,7.40
2023-02-11T22:51:24.557Z,7.28
2023-02-11T22:53:55.105Z,8.75
2023-02-11T22:56:22.380Z,6.25
2023-02-11T22:58:49.750Z,6.72
2023-02-11T23:01:17.585Z,7.00
2023-02-11T23:03:44.445Z,7.53
2023-02-11T23:06:12.801Z,7.30
2023-02-11T23:08:41.003Z,6.30
2023-02-11T23:11:11.499Z,8.52
2023-02-11T23:13:40.441Z,7.63
2023-02-11T23:16:12.977Z,6.70
2023-02-11T23:18:41.899Z,8.15
2023-02-11T23:21:12.788Z,6.85
2023-02-11T23:23:40.316Z,7.55
2023-02-11T23:26:12.619Z,8.80
2023-02-11T23:28:40.147Z,7.50
2023-02-11T23:31:15.910Z,10.18
2023-02-11T23:33:43.222Z,8.63
2023-02-11T23:36:10.727Z,7.45
2023-02-11T23:38:37.878Z,7.53
2023-02-11T23:41:05.319Z,8.52
2023-02-11T23:43:36.211Z,10.43
2023-02-11T23:46:03.691Z,8.20
2023-02-11T23:48:30.721Z,7.45
2023-02-11T23:50:57.704Z,8.52
2023-02-11T23:53:24.731Z,7.22
2023-02-11T23:55:51.474Z,8.90
2023-02-11T23:58:18.510Z,9.43
